createdAt,value
2022-09-26T00:01:42.959Z,95530.10
2022-09-26T00:04:22.978Z,95532.30
2022-09-26T00:06:53.932Z,95530.75
2022-09-26T00:09:24.865Z,95534.16
2022-09-26T00:11:53.409Z,95531.90
2022-09-26T00:14:24.890Z,95529.88
2022-09-26T00:16:53.873Z,95528.55
2022-09-26T00:19:22.904Z,95525.14
2022-09-26T00:21:51.232Z,95518.86
2022-09-26T00:24:19.769Z,95517.52
2022-09-26T00:26:47.908Z,95517.27
2022-09-26T00:29:16.409Z,95516.23
2022-09-26T00:31:46.266Z,95516.48
2022-09-26T00:34:16.966Z,95512.23
2022-09-26T00:36:45.231Z,95508.27
2022-09-26T00:39:15.609Z,95503.98
2022-09-26T00:41:45.074Z,95503.16
2022-09-26T00:44:54.809Z,95502.74
2022-09-26T00:47:34.647Z,95501.83
2022-09-26T00:50:08.378Z,95500.02
2022-09-26T00:52:49.209Z,95501.79
2022-09-26T00:55:21.963Z,95501.55
2022-09-26T00:57:56.732Z,95497.04
2022-09-26T01:00:25.161Z,95502.29
2022-09-26T01:02:54.270Z,95494.25
2022-09-26T01:05:24.249Z,95494.45
2022-09-26T01:07:55.138Z,95493.52
2022-09-26T01:10:24.829Z,95496.52
2022-09-26T01:12:54.111Z,95497.02
2022-09-26T01:15:26.214Z,95495.73
2022-09-26T01:17:56.779Z,95494.98
2022-09-26T01:20:36.672Z,95498.45
2022-09-26T01:23:40.364Z,95497.67
2022-09-26T01:26:33.299Z,95490.54
2022-09-26T01:29:29.351Z,95492.98
2022-09-26T01:32:36.995Z,95493.57
2022-09-26T01:35:21.324Z,95493.84
2022-09-26T01:38:07.918Z,95486.87
2022-09-26T01:40:57.384Z,95485.98
2022-09-26T01:43:40.296Z,95484.85
2022-09-26T01:46:36.239Z,95481.62
2022-09-26T01:49:20.969Z,95479.81
2022-09-26T01:51:52.088Z,95471.69
2022-09-26T01:54:24.901Z,95470.32
2022-09-26T01:56:57.581Z,95461.63
2022-09-26T01:59:42.289Z,95463.38
2022-09-26T02:02:19.606Z,95456.58
2022-09-26T02:04:53.616Z,95454.55
2022-09-26T02:07:43.936Z,95448.56
2022-09-26T02:10:22.099Z,95445.66
2022-09-26T02:12:59.691Z,95445.77
2022-09-26T02:15:34.830Z,95447.77
2022-09-26T02:18:17.469Z,95448.20
2022-09-26T02:20:58.437Z,95441.19
2022-09-26T02:23:26.524Z,95445.56
2022-09-26T02:25:55.227Z,95446.36
2022-09-26T02:28:23.485Z,95445.50
2022-09-26T02:30:54.581Z,95445.59
2022-09-26T02:33:24.116Z,95443.65
2022-09-26T02:35:55.365Z,95443.13
2022-09-26T02:38:31.933Z,95439.11
2022-09-26T02:41:22.623Z,95434.89
2022-09-26T02:44:11.835Z,95433.24
2022-09-26T02:47:00.219Z,95434.34
2022-09-26T02:49:34.360Z,95432.24
2022-09-26T02:52:36.092Z,95430.11
2022-09-26T02:55:26.842Z,95434.91
2022-09-26T02:58:04.283Z,95430.73
2022-09-26T03:01:11.030Z,95428.46
2022-09-26T03:04:15.050Z,95425.32
2022-09-26T03:06:46.883Z,95421.55
2022-09-26T03:09:18.077Z,95419.39
2022-09-26T03:11:48.236Z,95412.41
2022-09-26T03:14:18.262Z,95406.21
2022-09-26T03:16:49.798Z,95398.20
2022-09-26T03:19:36.448Z,95395.48
2022-09-26T03:22:04.739Z,95392.02
2022-09-26T03:24:36.423Z,95388.81
2022-09-26T03:27:05.993Z,95389.17
2022-09-26T03:29:36.804Z,95385.75
2022-09-26T03:32:06.908Z,95385.23
2022-09-26T03:34:35.230Z,95384.77
2022-09-26T03:37:03.249Z,95378.98
2022-09-26T03:39:31.388Z,95383.50
2022-09-26T03:42:02.887Z,95381.73
2022-09-26T03:44:32.521Z,95384.84
2022-09-26T03:47:19.457Z,95379.09
2022-09-26T03:49:51.701Z,95378.49
2022-09-26T03:52:20.165Z,95376.86
2022-09-26T03:54:49.827Z,95376.71
2022-09-26T03:57:18.163Z,95373.98
2022-09-26T03:59:55.811Z,95372.31
2022-09-26T04:02:25.330Z,95371.79
2022-09-26T04:04:59.834Z,95369.60
2022-09-26T04:07:27.942Z,95363.90
2022-09-26T04:09:56.022Z,95365.85
2022-09-26T04:12:24.011Z,95367.81
2022-09-26T04:14:54.050Z,95368.03
2022-09-26T04:17:22.268Z,95364.14
2022-09-26T04:19:50.478Z,95367.67
2022-09-26T04:22:18.731Z,95366.81
2022-09-26T04:24:46.873Z,95366.41
2022-09-26T04:27:15.419Z,95364.73
2022-09-26T04:29:45.323Z,95361.45
2022-09-26T04:32:19.756Z,95362.20
2022-09-26T04:35:19.935Z,95362.75
2022-09-26T04:37:50.798Z,95359.55
2022-09-26T04:40:19.187Z,95358.79
2022-09-26T04:42:59.973Z,95352.19
2022-09-26T04:45:28.271Z,95351.30
2022-09-26T04:47:57.055Z,95348.34
2022-09-26T04:50:29.097Z,95345.66
2022-09-26T04:53:07.120Z,95342.17
2022-09-26T04:55:39.223Z,95344.66
2022-09-26T04:58:07.350Z,95343.67
2022-09-26T05:00:35.748Z,95344.24
2022-09-26T05:03:05.407Z,95340.30
2022-09-26T05:05:33.929Z,95337.66
2022-09-26T05:08:02.386Z,95335.44
2022-09-26T05:10:30.535Z,95337.99
2022-09-26T05:13:03.578Z,95338.98
2022-09-26T05:15:32.309Z,95342.23
2022-09-26T05:18:00.789Z,95342.25
2022-09-26T05:20:31.920Z,95340.79
2022-09-26T05:23:07.437Z,95335.17
2022-09-26T05:25:57.648Z,95332.67
2022-09-26T05:28:27.036Z,95327.15
2022-09-26T05:30:55.264Z,95329.52
2022-09-26T05:33:23.349Z,95329.53
2022-09-26T05:35:55.831Z,95329.14
2022-09-26T05:38:23.782Z,95329.59
2022-09-26T05:40:57.001Z,95329.36
2022-09-26T05:43:31.793Z,95323.80
2022-09-26T05:46:04.967Z,95325.62
2022-09-26T05:48:39.165Z,95327.83
2022-09-26T05:51:12.686Z,95329.02
2022-09-26T05:53:45.824Z,95328.27
2022-09-26T05:56:19.054Z,95334.77
2022-09-26T05:59:10.980Z,95335.70
2022-09-26T06:01:58.769Z,95331.90
2022-09-26T06:04:45.129Z,95325.62
2022-09-26T06:07:32.474Z,95328.48
2022-09-26T06:10:01.439Z,95328.42
2022-09-26T06:12:35.934Z,95334.23
2022-09-26T06:15:05.536Z,95331.27
2022-09-26T06:17:34.681Z,95334.19
2022-09-26T06:20:05.437Z,95329.67
2022-09-26T06:22:43.897Z,95330.58
2022-09-26T06:25:13.108Z,95330.52
2022-09-26T06:27:42.594Z,95329.81
2022-09-26T06:30:12.197Z,95327.74
2022-09-26T06:32:41.458Z,95323.41
2022-09-26T06:35:22.309Z,95323.91
2022-09-26T06:38:08.985Z,95322.98
2022-09-26T06:40:38.068Z,95318.81
2022-09-26T06:43:06.740Z,95317.63
2022-09-26T06:46:09.828Z,95318.71
2022-09-26T06:49:10.327Z,95318.02
2022-09-26T06:51:44.094Z,95320.11
2022-09-26T06:54:12.117Z,95320.10
2022-09-26T06:56:40.254Z,95318.46
2022-09-26T06:59:08.751Z,95319.16
2022-09-26T07:01:41.756Z,95322.83
2022-09-26T07:04:30.774Z,95322.09
2022-09-26T07:07:27.892Z,95322.00
2022-09-26T07:09:56.650Z,95321.52
2022-09-26T07:12:47.403Z,95323.29
2022-09-26T07:15:21.065Z,95323.11
2022-09-26T07:17:49.866Z,95319.21
2022-09-26T07:20:34.676Z,95317.66
2022-09-26T07:23:21.744Z,95312.19
2022-09-26T07:25:51.137Z,95310.79
2022-09-26T07:28:19.706Z,95307.52
2022-09-26T07:30:49.851Z,95303.60
2022-09-26T07:33:43.010Z,95302.07
2022-09-26T07:36:12.881Z,95305.81
2022-09-26T07:38:43.885Z,95306.58
2022-09-26T07:41:12.334Z,95304.09
2022-09-26T07:44:30.329Z,95302.15
2022-09-26T07:46:50.032Z,95305.26
2022-09-26T07:49:37.105Z,95304.14
2022-09-26T07:52:11.421Z,95306.31
2022-09-26T07:55:11.409Z,95305.84
2022-09-26T07:57:59.334Z,95305.80
2022-09-26T08:00:47.771Z,95307.54
2022-09-26T08:03:48.425Z,95305.83
2022-09-26T08:06:42.823Z,95304.02
2022-09-26T08:09:11.564Z,95301.78
2022-09-26T08:11:58.368Z,95303.71
2022-09-26T08:14:49.922Z,95304.50
2022-09-26T08:17:34.939Z,95308.04
2022-09-26T08:20:04.356Z,95308.80
2022-09-26T08:22:33.006Z,95309.25
2022-09-26T08:25:01.515Z,95306.88
2022-09-26T08:28:00.297Z,95307.12
2022-09-26T08:30:31.463Z,95308.27
2022-09-26T08:33:02.563Z,95308.50
2022-09-26T08:35:35.786Z,95308.85
2022-09-26T08:38:21.889Z,95308.35
2022-09-26T08:41:32.546Z,95308.73
2022-09-26T08:44:42.229Z,95306.73
2022-09-26T08:47:43.861Z,95306.39
2022-09-26T08:51:12.572Z,95308.16
2022-09-26T08:54:05.827Z,95308.16
2022-09-26T08:56:42.166Z,95307.34
2022-09-26T08:59:43.619Z,95306.80
2022-09-26T09:02:51.840Z,95303.95
2022-09-26T09:05:28.477Z,95303.66
2022-09-26T09:07:59.026Z,95302.75
2022-09-26T09:10:54.752Z,95299.69
2022-09-26T09:13:28.034Z,95305.38
2022-09-26T09:16:37.163Z,95304.77
2022-09-26T09:19:56.739Z,95307.72
2022-09-26T09:23:02.462Z,95309.34
2022-09-26T09:27:52.432Z,95307.73
2022-09-26T09:29:23.596Z,95307.74
2022-09-26T09:32:17.283Z,95306.98
2022-09-26T09:35:18.422Z,95304.69
2022-09-26T09:38:18.353Z,95302.63
2022-09-26T09:41:03.672Z,95303.08
2022-09-26T09:43:34.852Z,95308.60
2022-09-26T09:46:13.069Z,95306.95
2022-09-26T09:48:41.862Z,95306.53
2022-09-26T09:51:44.653Z,95303.09
2022-09-26T09:54:24.856Z,95303.09
2022-09-26T09:56:56.056Z,95302.06
2022-09-26T09:59:58.484Z,95298.33
2022-09-26T10:03:20.379Z,95301.02
2022-09-26T10:05:53.779Z,95298.82
2022-09-26T10:08:33.250Z,95295.24
2022-09-26T10:11:41.789Z,95295.34
2022-09-26T10:14:45.394Z,95296.30
2022-09-26T10:17:32.508Z,95293.41
2022-09-26T10:20:53.173Z,95291.98
2022-09-26T10:23:27.308Z,95295.41
2022-09-26T10:26:02.513Z,95293.38
2022-09-26T10:28:44.557Z,95290.36
2022-09-26T10:31:26.331Z,95289.81
2022-09-26T10:34:38.478Z,95282.19
2022-09-26T10:37:29.093Z,95275.91
2022-09-26T10:40:53.362Z,95272.25
2022-09-26T10:43:32.847Z,95271.98
2022-09-26T10:46:19.327Z,95270.56
2022-09-26T10:49:15.753Z,95270.73
2022-09-26T10:52:18.215Z,95266.70
2022-09-26T10:55:11.557Z,95263.74
2022-09-26T10:57:46.750Z,95258.91
2022-09-26T11:00:22.141Z,95256.48
2022-09-26T11:02:52.601Z,95255.25
2022-09-26T11:05:42.691Z,95252.90
2022-09-26T11:08:18.960Z,95255.18
2022-09-26T11:11:11.402Z,95249.82
2022-09-26T11:14:05.344Z,95249.47
2022-09-26T11:16:43.545Z,95247.21
2022-09-26T11:19:55.089Z,95245.64
2022-09-26T11:22:42.302Z,95241.95
2022-09-26T11:25:28.906Z,95240.16
2022-09-26T11:28:34.525Z,95239.96
2022-09-26T11:31:29.303Z,95242.14
2022-09-26T11:34:27.836Z,95240.11
2022-09-26T11:37:18.283Z,95240.73
2022-09-26T11:40:10.126Z,95234.83
2022-09-26T11:42:54.905Z,95233.77
2022-09-26T11:45:53.556Z,95229.85
2022-09-26T11:49:18.041Z,95228.70
2022-09-26T11:52:17.884Z,95231.46
2022-09-26T11:54:52.265Z,95231.67
2022-09-26T11:57:49.775Z,95230.90
2022-09-26T12:00:27.851Z,95227.00
2022-09-26T12:03:15.140Z,95227.95
2022-09-26T12:06:00.768Z,95226.27
2022-09-26T12:08:54.135Z,95221.67
2022-09-26T12:11:41.708Z,95220.10
2022-09-26T12:14:53.929Z,95219.84
2022-09-26T12:17:44.126Z,95220.73
2022-09-26T12:20:30.600Z,95217.85
2022-09-26T12:23:22.500Z,95216.88
2022-09-26T12:25:56.409Z,95215.55
2022-09-26T12:28:25.623Z,95213.45
2022-09-26T12:30:59.946Z,95217.96
2022-09-26T12:33:43.582Z,95220.10
2022-09-26T12:36:21.636Z,95218.88
2022-09-26T12:38:58.632Z,95217.23
2022-09-26T12:41:38.293Z,95210.92
2022-09-26T12:44:27.388Z,95212.83
2022-09-26T12:47:09.609Z,95210.73
2022-09-26T12:49:45.135Z,95212.58
2022-09-26T12:52:39.204Z,95205.90
2022-09-26T12:55:38.706Z,95208.02
2022-09-26T12:58:25.160Z,95205.23
2022-09-26T13:01:08.590Z,95208.14
2022-09-26T13:03:55.520Z,95207.84
2022-09-26T13:07:17.228Z,95208.48
2022-09-26T13:10:07.762Z,95209.19
2022-09-26T13:12:59.002Z,95209.52
2022-09-26T13:15:32.516Z,95209.33
2022-09-26T13:18:13.069Z,95211.50
2022-09-26T13:20:50.176Z,95209.23
2022-09-26T13:23:21.034Z,95207.41
2022-09-26T13:25:53.091Z,95211.92
2022-09-26T13:28:30.433Z,95209.66
2022-09-26T13:31:05.615Z,95206.48
2022-09-26T13:33:37.273Z,95206.15
2022-09-26T13:36:08.872Z,95200.26
2022-09-26T13:38:46.302Z,95201.03
2022-09-26T13:41:32.907Z,95200.73
2022-09-26T13:44:03.843Z,95195.00
2022-09-26T13:47:03.445Z,95193.60
2022-09-26T13:50:16.640Z,95189.45
2022-09-26T13:53:06.895Z,95184.95
2022-09-26T13:55:37.421Z,95184.72
2022-09-26T13:58:19.498Z,95175.16
2022-09-26T14:00:55.102Z,95168.42
2022-09-26T14:03:23.533Z,95169.48
2022-09-26T14:06:06.663Z,95167.14
2022-09-26T14:08:55.527Z,95171.58
2022-09-26T14:11:45.485Z,95167.20
2022-09-26T14:14:19.553Z,95166.16
2022-09-26T14:16:52.088Z,95164.42
2022-09-26T14:19:31.966Z,95164.73
2022-09-26T14:22:21.666Z,95157.75
2022-09-26T14:24:51.602Z,95155.58
2022-09-26T14:27:25.569Z,95153.59
2022-09-26T14:30:01.199Z,95157.78
2022-09-26T14:32:35.259Z,95156.41
2022-09-26T14:35:16.656Z,95159.20
2022-09-26T14:37:52.066Z,95156.66
2022-09-26T14:40:39.991Z,95155.79
2022-09-26T14:43:14.189Z,95154.67
2022-09-26T14:45:52.862Z,95155.76
2022-09-26T14:48:26.839Z,95154.77
2022-09-26T14:51:07.135Z,95157.30
2022-09-26T14:53:50.166Z,95154.14
2022-09-26T14:56:27.750Z,95153.38
2022-09-26T14:59:17.157Z,95154.89
2022-09-26T15:01:46.370Z,95157.79
2022-09-26T15:04:20.889Z,95157.56
2022-09-26T15:06:53.096Z,95156.66
2022-09-26T15:09:32.951Z,95152.38
2022-09-26T15:12:09.131Z,95153.34
2022-09-26T15:15:09.219Z,95157.25
2022-09-26T15:17:45.968Z,95153.79
2022-09-26T15:20:18.584Z,95157.67
2022-09-26T15:22:48.115Z,95160.16
2022-09-26T15:25:25.967Z,95158.11
2022-09-26T15:27:55.553Z,95163.23
2022-09-26T15:30:43.202Z,95162.23
2022-09-26T15:33:20.419Z,95161.01
2022-09-26T15:35:55.059Z,95159.41
2022-09-26T15:38:25.259Z,95155.47
2022-09-26T15:41:01.437Z,95153.30
2022-09-26T15:43:35.046Z,95152.48
2022-09-26T15:46:07.431Z,95151.35
2022-09-26T15:48:43.246Z,95149.38
2022-09-26T15:51:30.234Z,95150.87
2022-09-26T15:54:03.813Z,95150.15
2022-09-26T15:56:39.714Z,95150.33
2022-09-26T15:59:13.995Z,95153.60
2022-09-26T16:01:44.803Z,95150.73
2022-09-26T16:04:33.389Z,95152.02
2022-09-26T16:07:04.471Z,95150.42
2022-09-26T16:09:44.492Z,95147.39
2022-09-26T16:12:15.685Z,95149.59
2022-09-26T16:15:05.345Z,95143.31
2022-09-26T16:17:36.436Z,95139.58
2022-09-26T16:20:13.760Z,95138.84
2022-09-26T16:22:54.920Z,95137.92
2022-09-26T16:25:30.140Z,95138.18
2022-09-26T16:28:01.710Z,95141.94
2022-09-26T16:30:30.278Z,95138.58
2022-09-26T16:33:07.673Z,95137.89
2022-09-26T16:35:43.349Z,95140.29
2022-09-26T16:38:32.309Z,95139.11
2022-09-26T16:41:31.391Z,95142.73
2022-09-26T16:44:40.675Z,95144.75
2022-09-26T16:47:34.429Z,95141.34
2022-09-26T16:50:29.160Z,95135.48
2022-09-26T16:52:58.106Z,95132.67
2022-09-26T16:55:27.727Z,95129.93
2022-09-26T16:57:59.193Z,95130.77
2022-09-26T17:00:52.703Z,95129.70
2022-09-26T17:03:23.971Z,95135.40
2022-09-26T17:05:55.679Z,95135.52
2022-09-26T17:08:26.595Z,95141.50
2022-09-26T17:10:58.694Z,95143.52
2022-09-26T17:13:29.108Z,95145.23
2022-09-26T17:16:02.610Z,95147.30
2022-09-26T17:18:33.380Z,95148.63
2022-09-26T17:21:02.223Z,95146.75
2022-09-26T17:23:40.648Z,95148.15
2022-09-26T17:26:21.840Z,95138.28
2022-09-26T17:28:53.431Z,95138.77
2022-09-26T17:31:21.696Z,95138.62
2022-09-26T17:33:53.393Z,95139.42
2022-09-26T17:36:29.437Z,95136.74
2022-09-26T17:39:02.563Z,95136.86
2022-09-26T17:41:32.740Z,95138.49
2022-09-26T17:44:01.139Z,95144.33
2022-09-26T17:46:30.368Z,95145.34
2022-09-26T17:48:59.534Z,95144.80
2022-09-26T17:51:27.762Z,95144.30
2022-09-26T17:53:57.496Z,95140.56
2022-09-26T17:56:26.520Z,95143.19
2022-09-26T17:58:55.869Z,95141.67
2022-09-26T18:01:33.808Z,95139.27
2022-09-26T18:04:07.396Z,95135.23
2022-09-26T18:06:37.069Z,95138.21
2022-09-26T18:09:10.072Z,95133.09
2022-09-26T18:11:38.907Z,95136.47
2022-09-26T18:14:08.668Z,95136.94
2022-09-26T18:16:36.911Z,95129.52
2022-09-26T18:19:07.555Z,95128.88
2022-09-26T18:21:36.762Z,95127.45
2022-09-26T18:24:06.840Z,95126.39
2022-09-26T18:26:42.316Z,95132.38
2022-09-26T18:29:15.369Z,95129.66
2022-09-26T18:31:46.013Z,95130.63
2022-09-26T18:34:18.783Z,95129.61
2022-09-26T18:36:48.277Z,95131.00
2022-09-26T18:39:17.074Z,95132.80
2022-09-26T18:41:46.086Z,95135.77
2022-09-26T18:44:17.927Z,95137.42
2022-09-26T18:46:48.341Z,95139.75
2022-09-26T18:49:17.620Z,95138.73
2022-09-26T18:51:47.092Z,95140.20
2022-09-26T18:54:17.362Z,95137.21
2022-09-26T18:57:04.473Z,95138.02
2022-09-26T18:59:32.638Z,95137.79
2022-09-26T19:02:02.712Z,95139.86
2022-09-26T19:04:31.872Z,95139.80
2022-09-26T19:07:02.404Z,95137.32
2022-09-26T19:09:35.774Z,95140.98
2022-09-26T19:12:04.300Z,95142.39
2022-09-26T19:14:32.809Z,95138.96
2022-09-26T19:17:00.962Z,95136.60
2022-09-26T19:19:30.485Z,95133.89
2022-09-26T19:22:15.226Z,95132.12
2022-09-26T19:25:10.320Z,95132.02
2022-09-26T19:27:52.167Z,95134.94
2022-09-26T19:30:22.355Z,95136.15
2022-09-26T19:32:53.207Z,95137.79
2022-09-26T19:35:35.424Z,95135.35
2022-09-26T19:38:06.618Z,95133.61
2022-09-26T19:40:34.912Z,95132.80
2022-09-26T19:43:04.661Z,95132.06
2022-09-26T19:45:35.068Z,95129.98
2022-09-26T19:48:05.448Z,95128.88
2022-09-26T19:50:35.662Z,95133.73
2022-09-26T19:53:13.470Z,95137.48
2022-09-26T19:55:42.210Z,95135.75
2022-09-26T19:58:16.861Z,95134.63
2022-09-26T20:00:49.735Z,95139.98
2022-09-26T20:03:43.004Z,95141.61
2022-09-26T20:06:29.396Z,95140.67
2022-09-26T20:09:01.693Z,95143.96
2022-09-26T20:11:30.481Z,95139.45
2022-09-26T20:14:17.361Z,95139.22
2022-09-26T20:16:45.600Z,95139.41
2022-09-26T20:19:24.680Z,95139.92
2022-09-26T20:21:53.336Z,95145.61
2022-09-26T20:24:21.583Z,95146.91
2022-09-26T20:26:49.791Z,95144.05
2022-09-26T20:29:17.874Z,95144.78
2022-09-26T20:31:47.648Z,95143.30
2022-09-26T20:34:17.353Z,95143.20
2022-09-26T20:36:49.327Z,95142.29
2022-09-26T20:39:23.922Z,95141.30
2022-09-26T20:41:52.737Z,95146.05
2022-09-26T20:44:30.324Z,95141.04
2022-09-26T20:47:00.158Z,95141.66
2022-09-26T20:49:40.452Z,95144.73
2022-09-26T20:52:19.342Z,95140.70
2022-09-26T20:54:47.640Z,95140.56
2022-09-26T20:57:17.517Z,95143.58
2022-09-26T20:59:47.065Z,95143.04
2022-09-26T21:02:31.049Z,95145.89
2022-09-26T21:05:03.409Z,95151.30
2022-09-26T21:07:32.253Z,95148.54
2022-09-26T21:10:00.434Z,95147.40
2022-09-26T21:12:28.682Z,95146.28
2022-09-26T21:14:56.731Z,95139.36
2022-09-26T21:17:29.355Z,95141.92
2022-09-26T21:19:58.074Z,95135.39
2022-09-26T21:22:52.781Z,95131.75
2022-09-26T21:25:23.201Z,95127.08
2022-09-26T21:27:55.889Z,95124.48
2022-09-26T21:30:24.247Z,95125.36
2022-09-26T21:32:56.785Z,95123.45
2022-09-26T21:35:31.306Z,95122.04
2022-09-26T21:38:01.331Z,95120.02
2022-09-26T21:40:32.080Z,95122.05
2022-09-26T21:43:07.655Z,95121.42
2022-09-26T21:45:35.689Z,95121.73
2022-09-26T21:48:03.860Z,95117.05
2022-09-26T21:50:32.254Z,95114.23
2022-09-26T21:53:05.803Z,95107.47
2022-09-26T21:55:38.818Z,95106.66
2022-09-26T21:58:15.311Z,95104.74
2022-09-26T22:00:43.370Z,95105.54
2022-09-26T22:03:11.605Z,95103.35
2022-09-26T22:05:39.705Z,95101.34
2022-09-26T22:08:07.702Z,95098.44
2022-09-26T22:10:36.962Z,95094.91
2022-09-26T22:13:05.595Z,95094.17
2022-09-26T22:15:33.681Z,95090.87
2022-09-26T22:18:02.127Z,95082.44
2022-09-26T22:20:30.361Z,95083.44
2022-09-26T22:22:58.434Z,95079.65
2022-09-26T22:25:26.612Z,95073.60
2022-09-26T22:27:54.636Z,95069.35
2022-09-26T22:30:22.816Z,95066.48
2022-09-26T22:32:50.958Z,95064.64
2022-09-26T22:35:19.020Z,95058.69
2022-09-26T22:37:47.341Z,95053.27
2022-09-26T22:40:15.453Z,95055.59
2022-09-26T22:42:43.588Z,95052.05
2022-09-26T22:45:11.630Z,95048.87
2022-09-26T22:47:39.773Z,95045.10
2022-09-26T22:50:08.275Z,95042.91
2022-09-26T22:52:36.417Z,95040.04
2022-09-26T22:55:05.008Z,95043.70
2022-09-26T22:57:33.170Z,95034.67
2022-09-26T23:00:02.028Z,95031.19
2022-09-26T23:02:30.160Z,95026.98
2022-09-26T23:04:58.273Z,95026.16
2022-09-26T23:07:26.368Z,95023.09
2022-09-26T23:09:54.527Z,95028.13
2022-09-26T23:12:22.683Z,95030.84
2022-09-26T23:14:50.702Z,95030.60
2022-09-26T23:17:18.763Z,95028.64
2022-09-26T23:19:46.953Z,95026.59
2022-09-26T23:22:15.685Z,95025.02
2022-09-26T23:24:43.796Z,95026.05
2022-09-26T23:27:11.824Z,95024.81
2022-09-26T23:29:40.386Z,95022.39
2022-09-26T23:32:08.531Z,95019.75
2022-09-26T23:34:36.593Z,95016.97
2022-09-26T23:37:04.654Z,95017.58
2022-09-26T23:39:32.783Z,95016.16
2022-09-26T23:42:00.891Z,95018.16
2022-09-26T23:44:28.944Z,95017.34
2022-09-26T23:47:00.132Z,95014.52
2022-09-26T23:49:29.001Z,95015.80
2022-09-26T23:51:56.993Z,95017.55
2022-09-26T23:54:25.055Z,95018.17
2022-09-26T23:56:53.203Z,95017.23
2022-09-26T23:59:21.311Z,95013.52
